createdAt,value
2022-09-03T00:00:08.375Z,69.64
2022-09-03T00:03:00.757Z,69.73
2022-09-03T00:05:52.709Z,70.07
2022-09-03T00:08:47.028Z,70.25
2022-09-03T00:11:43.341Z,70.56
2022-09-03T00:14:34.640Z,70.77
2022-09-03T00:17:22.620Z,71.07
2022-09-03T00:20:12.669Z,70.75
2022-09-03T00:23:01.321Z,70.49
2022-09-03T00:25:54.100Z,70.45
2022-09-03T00:28:45.719Z,70.68
2022-09-03T00:31:30.967Z,71.19
2022-09-03T00:34:34.976Z,70.82
2022-09-03T00:37:20.430Z,71.00
2022-09-03T00:40:10.863Z,71.93
2022-09-03T00:43:01.995Z,71.11
2022-09-03T00:45:57.465Z,71.26
2022-09-03T00:48:55.197Z,71.53
2022-09-03T00:51:50.633Z,71.22
2022-09-03T00:54:54.527Z,71.28
2022-09-03T00:57:56.886Z,71.06
2022-09-03T01:00:43.735Z,71.07
2022-09-03T01:03:42.159Z,71.45
2022-09-03T01:06:50.100Z,71.51
2022-09-03T01:09:35.315Z,71.48
2022-09-03T01:12:26.563Z,71.70
2022-09-03T01:15:15.401Z,71.55
2022-09-03T01:18:05.567Z,71.91
2022-09-03T01:20:54.020Z,72.55
2022-09-03T01:23:54.690Z,73.10
2022-09-03T01:26:40.184Z,73.81
2022-09-03T01:29:35.493Z,73.81
2022-09-03T01:32:30.632Z,74.15
2022-09-03T01:35:24.245Z,74.30
2022-09-03T01:38:25.753Z,74.90
2022-09-03T01:41:44.402Z,74.97
2022-09-03T01:44:43.511Z,75.60
2022-09-03T01:47:50.060Z,75.59
2022-09-03T01:50:57.942Z,75.79
2022-09-03T01:54:03.359Z,75.98
2022-09-03T01:56:59.362Z,76.85
2022-09-03T02:00:00.076Z,77.54
2022-09-03T02:02:49.036Z,77.73
2022-09-03T02:05:35.688Z,77.83
2022-09-03T02:08:21.089Z,77.83
2022-09-03T02:11:08.762Z,77.32
2022-09-03T02:13:57.784Z,77.39
2022-09-03T02:16:44.825Z,77.21
2022-09-03T02:19:31.504Z,77.63
2022-09-03T02:22:17.212Z,77.80
2022-09-03T02:25:02.691Z,78.07
2022-09-03T02:27:49.274Z,78.42
2022-09-03T02:30:34.574Z,78.70
2022-09-03T02:33:20.237Z,78.78
2022-09-03T02:36:08.007Z,79.02
2022-09-03T02:38:53.222Z,78.99
2022-09-03T02:41:38.498Z,79.14
2022-09-03T02:44:31.722Z,79.65
2022-09-03T02:47:18.016Z,79.88
2022-09-03T02:50:03.610Z,79.83
2022-09-03T02:52:49.288Z,79.67
2022-09-03T02:55:35.006Z,79.82
2022-09-03T02:58:20.279Z,79.75
2022-09-03T03:01:06.135Z,79.95
2022-09-03T03:03:52.128Z,80.88
2022-09-03T03:06:37.420Z,80.75
2022-09-03T03:09:22.795Z,80.43
2022-09-03T03:12:10.218Z,80.85
2022-09-03T03:14:55.427Z,81.07
2022-09-03T03:17:40.650Z,80.43
2022-09-03T03:20:26.157Z,80.88
2022-09-03T03:23:11.954Z,81.28
2022-09-03T03:26:00.609Z,81.31
2022-09-03T03:28:49.494Z,81.65
2022-09-03T03:31:35.049Z,82.04
2022-09-03T03:34:20.421Z,81.67
2022-09-03T03:37:06.231Z,81.97
2022-09-03T03:39:51.432Z,82.48
2022-09-03T03:42:36.949Z,82.75
2022-09-03T03:45:22.362Z,82.40
2022-09-03T03:48:08.005Z,82.59
2022-09-03T03:50:53.809Z,82.87
2022-09-03T03:53:39.268Z,82.76
2022-09-03T03:56:26.132Z,82.75
2022-09-03T03:59:11.656Z,82.63
2022-09-03T04:01:57.098Z,82.59
2022-09-03T04:04:42.566Z,82.34
2022-09-03T04:07:27.766Z,83.26
2022-09-03T04:10:13.431Z,83.10
2022-09-03T04:12:58.589Z,82.70
2022-09-03T04:15:44.284Z,82.62
2022-09-03T04:18:30.453Z,82.50
2022-09-03T04:21:19.565Z,82.80
2022-09-03T04:24:05.460Z,82.81
2022-09-03T04:26:50.990Z,82.63
2022-09-03T04:29:36.815Z,82.50
2022-09-03T04:32:41.388Z,82.78
2022-09-03T04:35:31.706Z,83.31
2022-09-03T04:38:17.321Z,83.04
2022-09-03T04:41:02.987Z,83.34
2022-09-03T04:43:51.582Z,83.56
2022-09-03T04:46:37.143Z,83.65
2022-09-03T04:49:22.568Z,83.40
2022-09-03T04:52:08.090Z,83.04
2022-09-03T04:54:53.568Z,83.01
2022-09-03T04:57:38.749Z,82.22
2022-09-03T05:00:24.409Z,82.42
2022-09-03T05:03:09.862Z,81.97
2022-09-03T05:05:56.085Z,82.01
2022-09-03T05:08:41.456Z,81.53
2022-09-03T05:11:27.608Z,81.69
2022-09-03T05:14:13.040Z,81.60
2022-09-03T05:16:58.415Z,80.44
2022-09-03T05:19:43.810Z,80.32
2022-09-03T05:22:29.017Z,80.15
2022-09-03T05:25:14.608Z,80.60
2022-09-03T05:28:00.414Z,80.10
2022-09-03T05:30:45.831Z,79.49
2022-09-03T05:33:35.648Z,79.21
2022-09-03T05:36:23.048Z,78.99
2022-09-03T05:39:08.534Z,78.02
2022-09-03T05:41:53.998Z,77.58
2022-09-03T05:44:39.434Z,77.32
2022-09-03T05:47:24.621Z,77.01
2022-09-03T05:50:10.825Z,76.81
2022-09-03T05:52:55.983Z,76.18
2022-09-03T05:55:41.510Z,75.97
2022-09-03T05:58:36.405Z,75.34
2022-09-03T06:01:22.859Z,74.22
2022-09-03T06:04:09.565Z,73.88
2022-09-03T06:06:56.192Z,73.19
2022-09-03T06:09:41.957Z,72.67
2022-09-03T06:12:27.586Z,71.59
2022-09-03T06:15:12.732Z,71.35
2022-09-03T06:17:58.239Z,71.13
2022-09-03T06:20:43.347Z,70.06
2022-09-03T06:23:29.884Z,69.44
2022-09-03T06:26:15.276Z,68.79
2022-09-03T06:29:00.926Z,68.69
2022-09-03T06:31:48.466Z,68.64
2022-09-03T06:34:33.875Z,67.99
2022-09-03T06:37:19.579Z,66.42
2022-09-03T06:40:04.955Z,66.23
2022-09-03T06:43:02.502Z,65.57
2022-09-03T06:45:57.895Z,65.06
2022-09-03T06:48:45.654Z,64.67
2022-09-03T06:51:32.927Z,64.38
2022-09-03T06:54:18.600Z,63.04
2022-09-03T06:57:04.408Z,61.98
2022-09-03T06:59:49.909Z,61.46
2022-09-03T07:02:35.236Z,61.38
2022-09-03T07:05:20.897Z,61.85
2022-09-03T07:08:06.140Z,61.06
2022-09-03T07:10:51.633Z,60.81
2022-09-03T07:13:37.713Z,60.24
2022-09-03T07:16:24.202Z,59.56
2022-09-03T07:19:09.912Z,58.72
2022-09-03T07:21:55.023Z,58.77
2022-09-03T07:24:40.472Z,57.19
2022-09-03T07:27:26.441Z,56.88
2022-09-03T07:30:12.054Z,55.93
2022-09-03T07:33:01.746Z,54.58
2022-09-03T07:35:47.626Z,53.71
2022-09-03T07:38:33.731Z,53.54
2022-09-03T07:41:28.522Z,52.41
2022-09-03T07:44:16.319Z,51.83
2022-09-03T07:47:02.925Z,50.67
2022-09-03T07:49:48.761Z,49.62
2022-09-03T07:52:34.035Z,49.13
2022-09-03T07:55:20.070Z,48.09
2022-09-03T07:58:05.975Z,47.22
2022-09-03T08:00:54.043Z,47.25
2022-09-03T08:03:43.013Z,46.35
2022-09-03T08:06:29.460Z,46.47
2022-09-03T08:09:14.742Z,46.09
2022-09-03T08:12:00.260Z,44.79
2022-09-03T08:14:45.639Z,45.08
2022-09-03T08:17:31.156Z,45.50
2022-09-03T08:20:16.644Z,44.27
2022-09-03T08:23:02.932Z,42.93
2022-09-03T08:25:48.437Z,42.58
2022-09-03T08:28:35.084Z,42.93
2022-09-03T08:31:21.778Z,41.72
2022-09-03T08:34:07.458Z,42.32
2022-09-03T08:36:54.360Z,41.46
2022-09-03T08:39:39.850Z,39.77
2022-09-03T08:42:28.821Z,38.14
2022-09-03T08:45:17.724Z,38.31
2022-09-03T08:48:10.217Z,38.40
2022-09-03T08:50:59.924Z,38.91
2022-09-03T08:53:50.835Z,39.71
2022-09-03T08:56:38.693Z,37.44
2022-09-03T08:59:30.077Z,37.24
2022-09-03T09:02:39.354Z,36.75
2022-09-03T09:05:38.974Z,36.07
2022-09-03T09:08:32.951Z,36.63
2022-09-03T09:11:29.585Z,34.24
2022-09-03T09:14:36.902Z,33.17
2022-09-03T09:17:31.614Z,34.49
2022-09-03T09:20:35.495Z,33.98
2022-09-03T09:23:29.493Z,34.68
2022-09-03T09:26:19.074Z,33.42
2022-09-03T09:29:09.528Z,33.72
2022-09-03T09:31:55.967Z,32.36
2022-09-03T09:34:41.967Z,34.32
2022-09-03T09:37:27.602Z,34.36
2022-09-03T09:40:23.037Z,35.22
2022-09-03T09:43:16.129Z,33.94
2022-09-03T09:46:09.958Z,32.08
2022-09-03T09:48:57.189Z,32.37
2022-09-03T09:51:43.056Z,31.83
2022-09-03T09:54:28.432Z,32.78
2022-09-03T09:57:17.805Z,31.80
2022-09-03T10:00:13.375Z,31.17
2022-09-03T10:02:58.965Z,28.00
2022-09-03T10:05:56.004Z,29.68
2022-09-03T10:08:42.899Z,30.49
2022-09-03T10:11:28.247Z,29.05
2022-09-03T10:14:19.001Z,30.62
2022-09-03T10:17:10.648Z,30.46
2022-09-03T10:20:23.056Z,29.73
2022-09-03T10:23:15.741Z,29.22
2022-09-03T10:26:10.090Z,28.31
2022-09-03T10:28:58.189Z,28.37
2022-09-03T10:31:48.550Z,29.11
2022-09-03T10:34:49.170Z,28.57
2022-09-03T10:37:52.908Z,28.11
2022-09-03T10:40:42.637Z,28.97
2022-09-03T10:43:38.884Z,28.18
2022-09-03T10:46:27.600Z,27.40
2022-09-03T10:49:20.681Z,27.27
2022-09-03T10:52:35.184Z,26.24
2022-09-03T10:55:29.165Z,27.27
2022-09-03T10:58:33.241Z,26.30
2022-09-03T11:01:38.748Z,27.77
2022-09-03T11:04:27.175Z,26.54
2022-09-03T11:07:13.841Z,25.05
2022-09-03T11:10:17.946Z,24.54
2022-09-03T11:13:06.491Z,25.48
2022-09-03T11:15:54.128Z,24.03
2022-09-03T11:18:50.308Z,25.95
2022-09-03T11:21:36.614Z,25.29
2022-09-03T11:24:26.980Z,24.72
2022-09-03T11:27:20.076Z,23.86
2022-09-03T11:30:10.280Z,23.15
2022-09-03T11:32:59.683Z,25.47
2022-09-03T11:35:45.727Z,24.40
2022-09-03T11:38:32.069Z,24.97
2022-09-03T11:41:26.176Z,26.66
2022-09-03T11:44:17.145Z,27.03
2022-09-03T11:47:13.721Z,26.82
2022-09-03T11:50:06.674Z,26.64
2022-09-03T11:53:08.894Z,26.35
2022-09-03T11:55:55.701Z,26.38
2022-09-03T11:58:43.478Z,26.10
2022-09-03T12:01:29.518Z,26.32
2022-09-03T12:04:18.134Z,25.47
2022-09-03T12:07:14.610Z,26.75
2022-09-03T12:10:24.849Z,26.31
2022-09-03T12:13:16.051Z,24.55
2022-09-03T12:16:20.079Z,24.26
2022-09-03T12:19:12.589Z,22.88
2022-09-03T12:21:58.059Z,23.41
2022-09-03T12:24:44.451Z,24.57
2022-09-03T12:27:33.255Z,28.01
2022-09-03T12:30:21.440Z,27.65
2022-09-03T12:33:07.642Z,29.42
2022-09-03T12:36:00.705Z,28.00
2022-09-03T12:39:10.552Z,26.50
2022-09-03T12:42:04.022Z,25.43
2022-09-03T12:44:49.698Z,25.52
2022-09-03T12:47:39.178Z,24.62
2022-09-03T12:50:25.112Z,26.63
2022-09-03T12:53:16.669Z,25.29
2022-09-03T12:56:02.760Z,23.55
2022-09-03T12:58:56.697Z,23.43
2022-09-03T13:01:49.443Z,24.80
2022-09-03T13:04:36.715Z,23.67
2022-09-03T13:07:29.875Z,23.48
2022-09-03T13:10:42.189Z,24.13
2022-09-03T13:13:32.105Z,24.19
2022-09-03T13:16:41.472Z,23.23
2022-09-03T13:19:45.573Z,23.74
2022-09-03T13:22:49.218Z,24.59
2022-09-03T13:25:41.350Z,24.04
2022-09-03T13:28:27.669Z,25.50
2022-09-03T13:31:25.800Z,25.13
2022-09-03T13:34:16.819Z,24.32
2022-09-03T13:37:08.434Z,24.68
2022-09-03T13:39:55.637Z,23.93
2022-09-03T13:42:42.127Z,23.53
2022-09-03T13:45:44.230Z,24.30
2022-09-03T13:48:54.953Z,25.41
2022-09-03T13:51:49.774Z,24.93
2022-09-03T13:54:48.982Z,24.77
2022-09-03T13:57:40.077Z,24.98
2022-09-03T14:00:43.037Z,25.30
2022-09-03T14:03:49.280Z,25.55
2022-09-03T14:06:38.137Z,25.46
2022-09-03T14:09:31.121Z,25.68
2022-09-03T14:12:23.924Z,26.79
2022-09-03T14:15:29.673Z,24.97
2022-09-03T14:18:33.902Z,25.27
2022-09-03T14:21:22.762Z,24.57
2022-09-03T14:24:29.429Z,23.48
2022-09-03T14:27:22.577Z,24.02
2022-09-03T14:30:17.914Z,24.02
2022-09-03T14:33:03.366Z,23.75
2022-09-03T14:35:58.733Z,25.39
2022-09-03T14:38:56.242Z,25.45
2022-09-03T14:42:10.293Z,27.42
2022-09-03T14:44:58.313Z,26.26
2022-09-03T14:47:50.833Z,26.47
2022-09-03T14:50:45.416Z,25.80
2022-09-03T14:53:49.559Z,27.22
2022-09-03T14:56:42.880Z,29.94
2022-09-03T14:59:31.438Z,32.17
2022-09-03T15:02:19.483Z,31.48
2022-09-03T15:05:23.821Z,29.13
2022-09-03T15:08:27.699Z,29.66
2022-09-03T15:11:18.163Z,29.08
2022-09-03T15:14:03.353Z,30.56
2022-09-03T15:17:08.904Z,29.36
2022-09-03T15:20:14.260Z,28.87
2022-09-03T15:23:02.524Z,31.20
2022-09-03T15:26:06.442Z,29.97
2022-09-03T15:28:59.304Z,29.29
2022-09-03T15:31:52.673Z,29.54
2022-09-03T15:34:58.980Z,29.82
2022-09-03T15:37:48.991Z,28.16
2022-09-03T15:40:34.186Z,29.03
2022-09-03T15:43:27.420Z,29.65
2022-09-03T15:46:28.994Z,28.98
2022-09-03T15:49:21.658Z,29.30
2022-09-03T15:52:27.499Z,30.73
2022-09-03T15:55:15.181Z,32.38
2022-09-03T15:58:11.094Z,33.84
2022-09-03T16:01:00.280Z,33.70
2022-09-03T16:03:56.118Z,34.23
2022-09-03T16:06:44.683Z,35.38
2022-09-03T16:09:37.757Z,37.43
2022-09-03T16:12:44.157Z,38.39
2022-09-03T16:15:34.478Z,39.36
2022-09-03T16:18:20.023Z,38.91
2022-09-03T16:21:12.292Z,39.13
2022-09-03T16:24:05.230Z,39.93
2022-09-03T16:27:00.204Z,40.46
2022-09-03T16:29:54.628Z,41.17
2022-09-03T16:32:42.900Z,41.18
2022-09-03T16:35:42.486Z,41.00
2022-09-03T16:38:32.709Z,41.32
2022-09-03T16:41:18.609Z,41.73
2022-09-03T16:44:10.336Z,41.96
2022-09-03T16:47:04.133Z,41.96
2022-09-03T16:50:09.062Z,42.39
2022-09-03T16:55:53.666Z,43.01
2022-09-03T16:58:51.150Z,43.44
2022-09-03T17:01:36.572Z,43.25
2022-09-03T17:04:39.556Z,43.51
2022-09-03T17:07:25.028Z,43.58
2022-09-03T17:10:23.307Z,44.02
2022-09-03T17:13:17.138Z,44.08
2022-09-03T17:16:20.320Z,44.49
2022-09-03T17:19:23.229Z,44.62
2022-09-03T17:22:10.269Z,45.24
2022-09-03T17:25:05.176Z,45.22
2022-09-03T17:28:00.532Z,45.67
2022-09-03T17:30:57.039Z,46.29
2022-09-03T17:33:56.553Z,45.56
2022-09-03T17:36:51.034Z,45.81
2022-09-03T17:39:48.753Z,46.61
2022-09-03T17:42:38.453Z,46.27
2022-09-03T17:45:36.990Z,46.44
2022-09-03T17:48:43.751Z,46.70
2022-09-03T17:51:48.655Z,47.04
2022-09-03T17:54:44.493Z,47.17
2022-09-03T17:57:32.636Z,47.94
2022-09-03T18:00:37.893Z,47.70
2022-09-03T18:03:26.121Z,48.09
2022-09-03T18:06:27.248Z,48.33
2022-09-03T18:09:22.238Z,48.86
2022-09-03T18:12:11.684Z,49.05
2022-09-03T18:15:07.583Z,49.24
2022-09-03T18:18:02.988Z,49.76
2022-09-03T18:21:30.884Z,49.79
2022-09-03T18:25:00.151Z,50.01
2022-09-03T18:28:09.905Z,50.55
2022-09-03T18:31:13.832Z,50.63
2022-09-03T18:34:17.677Z,50.98
2022-09-03T18:37:22.100Z,51.58
2022-09-03T18:40:27.719Z,51.14
2022-09-03T18:43:44.009Z,51.97
2022-09-03T18:50:53.620Z,52.24
2022-09-03T18:54:08.149Z,52.58
2022-09-03T18:57:12.343Z,52.95
2022-09-03T19:00:29.020Z,53.27
2022-09-03T19:04:04.018Z,53.49
2022-09-03T19:07:18.018Z,53.49
2022-09-03T19:10:26.735Z,54.13
2022-09-03T19:13:37.248Z,54.13
2022-09-03T19:16:44.103Z,54.56
2022-09-03T19:20:02.918Z,54.62
2022-09-03T19:23:06.861Z,55.16
2022-09-03T19:26:15.255Z,55.77
2022-09-03T19:29:22.271Z,55.64
2022-09-03T19:32:36.397Z,55.32
2022-09-03T19:35:45.764Z,55.57
2022-09-03T19:38:59.290Z,56.21
2022-09-03T19:42:14.940Z,55.73
2022-09-03T19:45:21.737Z,55.79
2022-09-03T19:48:32.070Z,55.89
2022-09-03T19:51:50.881Z,56.07
2022-09-03T19:54:55.833Z,56.44
2022-09-03T19:58:02.322Z,56.06
2022-09-03T20:01:06.965Z,56.34
2022-09-03T20:04:11.726Z,56.55
2022-09-03T20:07:17.014Z,56.87
2022-09-03T20:10:22.236Z,56.99
2022-09-03T20:13:15.095Z,57.09
2022-09-03T20:16:22.034Z,57.46
2022-09-03T20:19:26.298Z,57.69
2022-09-03T20:22:11.519Z,57.21
2022-09-03T20:25:16.019Z,57.30
2022-09-03T20:28:01.296Z,57.24
2022-09-03T20:30:51.105Z,57.74
2022-09-03T20:33:55.416Z,58.32
2022-09-03T20:36:54.346Z,58.26
2022-09-03T20:39:58.790Z,58.54
2022-09-03T20:43:03.331Z,58.42
2022-09-03T20:45:48.637Z,58.60
2022-09-03T20:48:52.651Z,58.55
2022-09-03T20:51:53.266Z,58.40
2022-09-03T20:54:47.397Z,58.60
2022-09-03T20:57:51.659Z,58.80
2022-09-03T21:00:58.026Z,58.86
2022-09-03T21:03:54.142Z,58.76
2022-09-03T21:06:46.310Z,59.53
2022-09-03T21:09:43.606Z,59.08
2022-09-03T21:12:35.779Z,59.03
2022-09-03T21:15:33.073Z,59.08
2022-09-03T21:18:41.519Z,59.39
2022-09-03T21:21:38.405Z,59.12
2022-09-03T21:24:23.588Z,59.30
2022-09-03T21:27:20.870Z,59.70
2022-09-03T21:30:08.382Z,59.56
2022-09-03T21:33:02.659Z,59.82
2022-09-03T21:35:58.402Z,59.89
2022-09-03T21:38:49.154Z,60.09
2022-09-03T21:41:38.039Z,60.16
2022-09-03T21:44:43.994Z,60.28
2022-09-03T21:47:30.761Z,60.46
2022-09-03T21:50:16.792Z,61.10
2022-09-03T21:53:15.835Z,61.01
2022-09-03T21:56:21.687Z,60.79
2022-09-03T21:59:30.925Z,61.90
2022-09-03T22:02:30.088Z,61.68
2022-09-03T22:05:16.321Z,61.50
2022-09-03T22:08:12.150Z,62.29
2022-09-03T22:11:10.859Z,62.24
2022-09-03T22:14:15.917Z,62.36
2022-09-03T22:17:10.051Z,62.53
2022-09-03T22:19:55.558Z,62.26
2022-09-03T22:22:40.779Z,63.72
2022-09-03T22:25:32.250Z,63.59
2022-09-03T22:28:23.124Z,63.26
2022-09-03T22:31:35.433Z,63.46
2022-09-03T22:34:33.347Z,63.98
2022-09-03T22:37:39.173Z,64.25
2022-09-03T22:40:44.994Z,64.41
2022-09-03T22:43:37.780Z,64.10
2022-09-03T22:46:27.501Z,64.54
2022-09-03T22:49:13.006Z,64.53
2022-09-03T22:52:14.907Z,65.46
2022-09-03T22:55:17.591Z,65.27
2022-09-03T22:58:08.918Z,65.11
2022-09-03T23:00:59.019Z,65.95
2022-09-03T23:03:44.636Z,65.56
2022-09-03T23:06:36.218Z,65.94
2022-09-03T23:09:22.463Z,66.34
2022-09-03T23:12:14.834Z,66.29
2022-09-03T23:15:02.989Z,66.57
2022-09-03T23:17:53.280Z,66.40
2022-09-03T23:20:40.881Z,66.23
2022-09-03T23:23:29.642Z,66.50
2022-09-03T23:26:23.454Z,66.66
2022-09-03T23:29:12.140Z,66.69
2022-09-03T23:31:58.665Z,66.93
2022-09-03T23:34:44.248Z,67.21
2022-09-03T23:37:33.846Z,67.02
2022-09-03T23:40:28.372Z,67.33
2022-09-03T23:43:37.398Z,67.57
2022-09-03T23:46:31.615Z,67.24
2022-09-03T23:49:28.824Z,67.79
2022-09-03T23:52:20.885Z,68.41
2022-09-03T23:55:21.462Z,68.75
2022-09-03T23:58:09.561Z,68.77
